Time;durP1;ratioP1;P1;durP2;ratioP2;P2;SDS_P1;SDS_P2;PMS_P1;PMS_P2;Temp;Humidity;BMP_temperature;BMP_pressure;BME280_temperature;BME280_humidity;BME280_pressure;Samples;Min_cycle;Max_cycle;Signal;HPM_P1;HPM_P2
2022/06/21 00:01:10;;;;;;;9.10;2.58;;;12.70;99.90;;;;;;5046968;28;20071;-68
2022/06/21 00:03:36;;;;;;;11.48;2.60;;;12.70;99.90;;;;;;5046363;28;20049;-68
2022/06/21 00:06:02;;;;;;;9.15;2.60;;;12.70;99.90;;;;;;5052072;28;20405;-68
2022/06/21 00:08:31;;;;;;;7.10;2.65;;;12.80;99.90;;;;;;5050179;28;20119;-68
2022/06/21 00:10:58;;;;;;;14.07;2.92;;;12.80;99.90;;;;;;5027391;28;20049;-68
2022/06/21 00:13:34;;;;;;;16.27;3.13;;;12.80;99.90;;;;;;5046411;28;20041;-68
2022/06/21 00:16:06;;;;;;;14.77;3.30;;;12.80;99.90;;;;;;5042753;28;20049;-67
2022/06/21 00:18:36;;;;;;;8.07;2.78;;;12.70;99.90;;;;;;5043560;28;20049;-68
2022/06/21 00:21:02;;;;;;;9.23;2.90;;;12.70;99.90;;;;;;5041837;28;20037;-67
2022/06/21 00:23:31;;;;;;;14.02;3.03;;;12.70;99.90;;;;;;5026603;28;20160;-67
2022/06/21 00:25:57;;;;;;;12.23;2.90;;;12.70;99.90;;;;;;5050625;28;20033;-68
2022/06/21 00:28:23;;;;;;;8.35;2.80;;;12.70;99.90;;;;;;5047899;28;20075;-68
2022/06/21 00:30:51;;;;;;;8.57;2.72;;;12.60;99.90;;;;;;5048966;28;20079;-68
2022/06/21 00:33:19;;;;;;;13.20;3.08;;;12.60;99.90;;;;;;5048090;28;20045;-68
2022/06/21 00:35:46;;;;;;;;;;;12.60;99.90;;;;;;5048374;28;20432;-68
2022/06/21 00:38:19;;;;;;;7.88;2.90;;;12.60;99.90;;;;;;5044394;28;19928;-68
2022/06/21 00:40:44;;;;;;;15.55;3.30;;;12.50;99.90;;;;;;5036914;28;20496;-68
2022/06/21 00:43:16;;;;;;;12.73;3.00;;;12.50;99.90;;;;;;5049504;28;20115;-68
2022/06/21 00:45:46;;;;;;;10.40;3.10;;;12.50;99.90;;;;;;5039854;28;20053;-68
2022/06/21 00:48:29;;;;;;;9.23;3.10;;;12.40;99.90;;;;;;5046380;28;20048;-68
2022/06/21 00:51:03;;;;;;;9.52;3.10;;;12.40;99.90;;;;;;5045424;28;20040;-68
2022/06/21 00:53:41;;;;;;;14.35;3.33;;;12.30;99.90;;;;;;5051328;28;20135;-68
2022/06/21 00:56:16;;;;;;;13.48;3.60;;;12.40;99.90;;;;;;5034989;28;20112;-68
2022/06/21 00:58:41;;;;;;;13.88;3.95;;;12.40;99.90;;;;;;5048203;28;20107;-68
2022/06/21 01:01:17;;;;;;;10.57;3.30;;;12.30;99.90;;;;;;5043761;28;20422;-68
2022/06/21 01:03:57;;;;;;;10.90;3.70;;;12.30;99.90;;;;;;5039228;28;20083;-68
2022/06/21 01:06:31;;;;;;;8.70;3.38;;;12.20;99.90;;;;;;5047585;28;20063;-68
2022/06/21 01:09:02;;;;;;;12.85;3.42;;;12.30;99.90;;;;;;5037003;28;20132;-68
2022/06/21 01:11:37;;;;;;;9.73;3.42;;;12.20;99.90;;;;;;5048181;28;20045;-68
2022/06/21 01:14:03;;;;;;;6.63;2.95;;;12.10;99.90;;;;;;5042099;28;20411;-68
2022/06/21 01:16:31;;;;;;;9.32;3.40;;;12.10;99.90;;;;;;5050277;28;20503;-68
2022/06/21 01:18:58;;;;;;;14.13;4.00;;;12.00;99.90;;;;;;5043531;28;20111;-68
2022/06/21 01:21:25;;;;;;;13.45;3.72;;;12.00;99.90;;;;;;5046809;28;20582;-68
2022/06/21 01:24:07;;;;;;;12.55;3.45;;;12.10;99.90;;;;;;5042759;28;20040;-69
2022/06/21 01:26:52;;;;;;;15.90;3.95;;;12.10;99.90;;;;;;5043088;28;20103;-69
2022/06/21 01:29:21;;;;;;;14.00;3.80;;;12.10;99.90;;;;;;5048061;28;20490;-68
2022/06/21 01:31:49;;;;;;;11.95;3.40;;;12.00;99.90;;;;;;5050380;28;20045;-68
2022/06/21 01:34:20;;;;;;;9.10;3.20;;;12.00;99.90;;;;;;5046250;28;20063;-68
2022/06/21 01:36:50;;;;;;;9.73;3.30;;;12.00;99.90;;;;;;5043661;28;20059;-68
2022/06/21 01:39:25;;;;;;;15.00;4.82;;;12.00;99.90;;;;;;5052965;28;20057;-68
2022/06/21 01:42:16;;;;;;;14.23;3.80;;;12.00;99.90;;;;;;5045685;28;20052;-70
2022/06/21 01:44:48;;;;;;;7.22;3.20;;;12.00;99.90;;;;;;5041235;28;20053;-68
2022/06/21 01:47:17;;;;;;;10.30;3.85;;;12.00;99.90;;;;;;5039905;28;20045;-68
2022/06/21 01:49:50;;;;;;;12.27;3.92;;;11.90;99.90;;;;;;5040998;28;20099;-69
2022/06/21 01:52:19;;;;;;;14.85;4.30;;;11.80;99.90;;;;;;5064655;28;20041;-68
2022/06/21 01:54:54;;;;;;;24.23;4.45;;;11.80;99.90;;;;;;5047574;28;20086;-69
2022/06/21 01:57:20;;;;;;;10.02;3.95;;;11.80;99.90;;;;;;5046777;28;20051;-69
2022/06/21 01:59:49;;;;;;;19.58;5.32;;;11.80;99.90;;;;;;5043688;28;20037;-68
2022/06/21 02:02:38;;;;;;;14.90;4.00;;;11.70;99.90;;;;;;5046129;28;20048;-68
2022/06/21 02:05:33;;;;;;;13.07;4.27;;;11.70;99.90;;;;;;5049076;28;20048;-68
2022/06/21 02:08:09;;;;;;;11.73;4.32;;;11.60;99.90;;;;;;5046339;28;20132;-68
2022/06/21 02:10:39;;;;;;;12.05;4.43;;;11.60;99.90;;;;;;5045939;28;20032;-67
2022/06/21 02:13:17;;;;;;;13.07;4.20;;;11.50;99.90;;;;;;5046669;28;20398;-68
2022/06/21 02:15:56;;;;;;;12.63;4.20;;;11.50;99.90;;;;;;5045742;28;20036;-68
2022/06/21 02:18:24;;;;;;;11.70;4.90;;;11.50;99.90;;;;;;5049165;28;20132;-68
2022/06/21 02:21:01;;;;;;;12.50;3.85;;;11.50;99.90;;;;;;5042218;28;20377;-68
2022/06/21 02:23:28;;;;;;;10.90;4.10;;;11.40;99.90;;;;;;5041211;28;20398;-68
2022/06/21 02:25:56;;;;;;;13.63;3.78;;;11.40;99.90;;;;;;5027761;28;20049;-68
2022/06/21 02:28:23;;;;;;;10.63;4.03;;;11.40;99.90;;;;;;5044233;28;20127;-68
2022/06/21 02:30:52;;;;;;;8.80;4.05;;;11.40;99.90;;;;;;5041922;28;20036;-68
2022/06/21 02:33:24;;;;;;;9.80;4.95;;;11.50;99.90;;;;;;5044143;28;20124;-68
2022/06/21 02:35:54;;;;;;;14.02;4.15;;;11.40;99.90;;;;;;5037384;28;20041;-68
2022/06/21 02:38:32;;;;;;;7.70;3.88;;;11.40;99.90;;;;;;5049349;28;20103;-68
2022/06/21 02:41:12;;;;;;;11.52;3.67;;;11.30;99.90;;;;;;5038693;28;20087;-69
2022/06/21 02:43:45;;;;;;;12.30;3.40;;;11.30;99.90;;;;;;5049692;28;20048;-68
2022/06/21 02:46:16;;;;;;;11.85;4.18;;;11.30;99.90;;;;;;5046053;28;20077;-68
2022/06/21 02:49:09;;;;;;;12.63;3.60;;;11.20;99.90;;;;;;5046012;28;20210;-69
2022/06/21 02:51:44;;;;;;;10.73;3.42;;;11.30;99.90;;;;;;5044823;28;20381;-68
2022/06/21 02:54:15;;;;;;;10.77;3.38;;;11.30;99.90;;;;;;5050331;28;20071;-68
2022/06/21 02:56:51;;;;;;;10.32;3.92;;;11.30;99.90;;;;;;5042049;28;20112;-68
2022/06/21 02:59:17;;;;;;;11.30;4.28;;;11.30;99.90;;;;;;5042946;28;20041;-68
2022/06/21 03:01:48;;;;;;;10.43;3.95;;;11.20;99.90;;;;;;5037027;28;20565;-68
2022/06/21 03:04:34;;;;;;;7.88;3.50;;;11.30;99.90;;;;;;5047017;28;20407;-68
2022/06/21 03:07:00;;;;;;;10.40;4.15;;;11.30;99.90;;;;;;5043612;28;20052;-68
2022/06/21 03:09:27;;;;;;;12.52;4.32;;;11.30;99.90;;;;;;5043837;28;20546;-68
2022/06/21 03:11:59;;;;;;;15.02;4.20;;;11.30;99.90;;;;;;5044537;28;20052;-68
2022/06/21 03:14:27;;;;;;;13.40;4.45;;;11.30;99.90;;;;;;5043865;28;20045;-68
2022/06/21 03:16:55;;;;;;;10.63;4.00;;;11.40;99.90;;;;;;5046411;28;20076;-69
2022/06/21 03:19:46;;;;;;;10.02;4.38;;;11.30;99.90;;;;;;5051736;28;20045;-69
2022/06/21 03:22:24;;;;;;;12.93;4.95;;;11.30;99.90;;;;;;5044084;28;20045;-70
2022/06/21 03:24:54;;;;;;;12.57;5.13;;;11.30;99.90;;;;;;5043477;28;20045;-69
2022/06/21 03:27:28;;;;;;;12.23;4.53;;;11.30;99.90;;;;;;5044418;28;20049;-69
2022/06/21 03:29:54;;;;;;;8.77;3.70;;;11.30;99.90;;;;;;5045243;28;20045;-69
2022/06/21 03:32:20;;;;;;;7.85;3.88;;;11.30;99.90;;;;;;5048353;28;20080;-69
2022/06/21 03:34:50;;;;;;;12.20;5.20;;;11.30;99.90;;;;;;5050216;28;20041;-69
2022/06/21 03:37:18;;;;;;;9.95;4.47;;;11.30;99.90;;;;;;5042847;28;20041;-69
2022/06/21 03:42:34;;;;;;;11.55;4.30;;;11.30;99.90;;;;;;5042287;28;20076;-67
2022/06/21 03:45:14;;;;;;;11.90;4.65;;;11.30;99.90;;;;;;5048684;28;20065;-69
2022/06/21 03:47:45;;;;;;;8.55;4.50;;;11.30;99.90;;;;;;5041210;28;20192;-68
2022/06/21 03:50:21;;;;;;;9.38;4.53;;;11.30;99.90;;;;;;5044529;28;20476;-68
2022/06/21 03:53:13;;;;;;;11.05;4.80;;;11.40;99.90;;;;;;5047065;28;20041;-68
2022/06/21 03:55:52;;;;;;;13.32;5.32;;;11.40;99.90;;;;;;5048954;28;20064;-68
2022/06/21 03:58:29;;;;;;;12.60;5.18;;;11.50;99.90;;;;;;5045802;28;20410;-68
2022/06/21 04:01:05;;;;;;;12.88;5.10;;;11.60;99.90;;;;;;5047239;28;20041;-68
2022/06/21 04:03:56;;;;;;;12.52;4.65;;;11.70;99.90;;;;;;5052327;28;20499;-68
2022/06/21 04:06:31;;;;;;;13.45;5.15;;;11.70;99.90;;;;;;5048566;28;20057;-68
2022/06/21 04:09:07;;;;;;;10.98;4.93;;;11.80;99.90;;;;;;5044990;28;20483;-69
2022/06/21 04:11:45;;;;;;;9.95;4.35;;;11.80;99.90;;;;;;5048414;28;20495;-68
2022/06/21 04:14:11;;;;;;;10.03;4.23;;;11.90;99.90;;;;;;5043489;28;20052;-68
2022/06/21 04:17:07;;;;;;;9.68;4.50;;;11.90;99.90;;;;;;5043853;28;20046;-68
2022/06/21 04:19:44;;;;;;;8.25;4.00;;;12.00;99.90;;;;;;5050631;28;20102;-68
2022/06/21 04:22:16;;;;;;;8.63;3.92;;;12.10;99.90;;;;;;5040023;28;20522;-68
2022/06/21 04:25:11;;;;;;;12.95;4.13;;;12.10;99.90;;;;;;5044968;28;20037;-69
2022/06/21 04:27:53;;;;;;;13.10;4.65;;;12.20;99.90;;;;;;5059893;28;20119;-69
2022/06/21 04:30:50;;;;;;;12.05;4.00;;;12.30;99.90;;;;;;5044200;28;20084;-68
2022/06/21 04:33:41;;;;;;;12.23;4.38;;;12.30;99.90;;;;;;5053569;28;20421;-69
2022/06/21 04:36:15;;;;;;;9.90;3.88;;;12.40;99.90;;;;;;5051028;28;20099;-68
2022/06/21 04:38:55;;;;;;;9.23;3.95;;;12.50;99.90;;;;;;5039789;28;20459;-69
2022/06/21 04:41:26;;;;;;;8.43;3.90;;;12.50;99.90;;;;;;5041625;28;20053;-69
2022/06/21 04:44:07;;;;;;;11.85;3.88;;;12.60;99.90;;;;;;5042314;28;20069;-68
2022/06/21 04:46:59;;;;;;;6.47;3.83;;;12.60;99.90;;;;;;5046393;28;20041;-69
2022/06/21 04:50:03;;;;;;;8.45;4.07;;;12.70;99.90;;;;;;5047452;28;20041;-68
2022/06/21 04:52:37;;;;;;;10.52;4.55;;;12.70;99.90;;;;;;5052712;28;20098;-68
2022/06/21 04:55:04;;;;;;;10.70;4.10;;;12.70;99.90;;;;;;5049793;28;20129;-68
2022/06/21 04:57:32;;;;;;;12.30;4.50;;;12.70;99.90;;;;;;5043543;28;20041;-68
2022/06/21 04:59:58;;;;;;;11.68;4.13;;;12.80;99.90;;;;;;5048483;28;20100;-68
2022/06/21 05:02:29;;;;;;;15.02;4.50;;;12.80;99.90;;;;;;5037695;28;20080;-70
2022/06/21 05:05:03;;;;;;;9.55;4.40;;;12.80;99.90;;;;;;5047902;28;20110;-68
2022/06/21 05:07:33;;;;;;;12.00;4.18;;;12.80;99.90;;;;;;5041581;28;20029;-69
2022/06/21 05:10:00;;;;;;;7.55;3.92;;;12.90;99.90;;;;;;5060493;28;20041;-69
2022/06/21 05:12:39;;;;;;;8.80;3.63;;;13.20;99.90;;;;;;5048020;28;20131;-68
2022/06/21 05:15:14;;;;;;;6.82;3.90;;;13.00;99.90;;;;;;5050755;28;20116;-69
2022/06/21 05:17:43;;;;;;;17.88;4.35;;;13.00;99.90;;;;;;5035400;28;20120;-68
2022/06/21 05:20:20;;;;;;;15.70;3.92;;;13.10;99.90;;;;;;5045239;28;20048;-69
2022/06/21 05:22:52;;;;;;;11.63;4.28;;;13.10;99.90;;;;;;5047881;28;20036;-69
2022/06/21 05:25:34;;;;;;;9.93;3.88;;;13.10;99.90;;;;;;5038261;28;20038;-68
2022/06/21 05:28:07;;;;;;;12.15;4.57;;;13.10;99.90;;;;;;5045456;28;20026;-68
2022/06/21 05:30:49;;;;;;;11.60;4.05;;;13.10;99.90;;;;;;5040748;28;20057;-69
2022/06/21 05:33:38;;;;;;;10.27;5.00;;;13.20;99.90;;;;;;5044587;28;20072;-68
2022/06/21 05:36:09;;;;;;;9.23;4.63;;;13.20;99.90;;;;;;5047363;28;20037;-68
2022/06/21 05:38:45;;;;;;;15.35;5.05;;;13.30;99.90;;;;;;5042809;28;20128;-68
2022/06/21 05:41:30;;;;;;;10.90;5.18;;;13.30;99.90;;;;;;5041038;28;20043;-68
2022/06/21 05:44:00;;;;;;;13.02;4.68;;;13.40;99.90;;;;;;5046119;28;20118;-68
2022/06/21 05:46:27;;;;;;;12.25;5.15;;;13.50;99.90;;;;;;5031419;28;20049;-68
2022/06/21 05:48:55;;;;;;;7.05;4.50;;;13.60;99.90;;;;;;5045684;28;20096;-68
2022/06/21 05:51:30;;;;;;;11.35;5.10;;;13.70;99.90;;;;;;5016035;28;20053;-68
2022/06/21 05:54:12;;;;;;;9.40;4.60;;;13.80;99.90;;;;;;5036936;28;20103;-69
2022/06/21 05:56:39;;;;;;;10.25;4.22;;;13.90;99.90;;;;;;5050986;28;20072;-68
2022/06/21 05:59:13;;;;;;;9.27;3.90;;;14.00;99.90;;;;;;5045787;28;20042;-69
2022/06/21 06:01:49;;;;;;;9.27;4.35;;;14.10;99.90;;;;;;5044777;28;20526;-68
2022/06/21 06:04:33;;;;;;;10.52;4.05;;;14.20;99.90;;;;;;5045735;28;20140;-69
2022/06/21 06:07:01;;;;;;;12.57;3.85;;;14.30;99.90;;;;;;5048807;28;20041;-68
2022/06/21 06:09:34;;;;;;;10.45;3.20;;;14.30;99.90;;;;;;5044343;28;20135;-68
2022/06/21 06:12:04;;;;;;;9.35;3.17;;;14.30;99.90;;;;;;5047152;28;20390;-68
2022/06/21 06:14:42;;;;;;;8.20;3.13;;;14.30;99.90;;;;;;5040570;28;20044;-68
2022/06/21 06:17:33;;;;;;;11.85;3.50;;;14.40;99.90;;;;;;5049857;28;20106;-68
2022/06/21 06:19:59;;;;;;;14.65;3.33;;;14.60;99.90;;;;;;5035064;28;20056;-68
2022/06/21 06:22:48;;;;;;;7.10;2.90;;;14.70;99.90;;;;;;5054975;28;20041;-69
2022/06/21 06:25:32;;;;;;;9.40;2.95;;;14.80;99.90;;;;;;5052061;28;20036;-68
2022/06/21 06:28:01;;;;;;;10.77;3.10;;;14.90;99.90;;;;;;5043325;28;20048;-68
2022/06/21 06:30:33;;;;;;;7.40;2.97;;;14.90;99.90;;;;;;5040695;28;20055;-68
2022/06/21 06:33:26;;;;;;;10.95;3.17;;;15.00;99.90;;;;;;5055428;28;20067;-68
2022/06/21 06:35:55;;;;;;;8.82;3.10;;;15.00;99.90;;;;;;5045370;28;20093;-68
2022/06/21 06:38:21;;;;;;;11.45;3.15;;;15.10;99.90;;;;;;5034643;28;20505;-69
2022/06/21 06:40:51;;;;;;;8.57;2.65;;;15.10;99.90;;;;;;5043662;28;20517;-68
2022/06/21 06:43:27;;;;;;;6.38;2.78;;;15.20;99.90;;;;;;5038866;28;20056;-68
2022/06/21 06:45:57;;;;;;;10.25;3.00;;;15.30;99.90;;;;;;5031012;28;20089;-68
2022/06/21 06:48:28;;;;;;;7.60;2.72;;;15.50;99.90;;;;;;5032348;28;20586;-69
2022/06/21 06:51:04;;;;;;;11.40;3.20;;;15.60;99.90;;;;;;5032319;28;20057;-68
2022/06/21 06:53:45;;;;;;;11.50;2.78;;;15.80;99.90;;;;;;5037987;28;20532;-69
2022/06/21 06:56:18;;;;;;;13.18;4.13;;;16.10;99.90;;;;;;5043511;28;20518;-68
2022/06/21 06:58:44;;;;;;;7.15;3.08;;;16.10;99.90;;;;;;5046963;28;20098;-68
2022/06/21 07:01:13;;;;;;;6.20;2.88;;;16.10;99.90;;;;;;5043969;28;20450;-68
2022/06/21 07:03:47;;;;;;;7.15;2.72;;;16.00;99.90;;;;;;5037310;28;20092;-67
2022/06/21 07:06:21;;;;;;;12.40;3.55;;;16.00;99.90;;;;;;5048097;28;20052;-68
2022/06/21 07:09:24;;;;;;;7.43;2.97;;;16.00;99.90;;;;;;5046099;28;20049;-67
2022/06/21 07:12:00;;;;;;;13.32;3.53;;;15.90;99.90;;;;;;5030841;28;20061;-68
2022/06/21 07:14:27;;;;;;;8.07;3.15;;;16.00;99.90;;;;;;5044324;28;20041;-67
2022/06/21 07:17:06;;;;;;;9.60;2.95;;;16.10;99.90;;;;;;5055751;28;20111;-68
2022/06/21 07:19:32;;;;;;;7.45;2.60;;;16.20;99.90;;;;;;5055857;28;20052;-68
2022/06/21 07:21:57;;;;;;;10.32;2.90;;;16.20;99.90;;;;;;5053822;28;20044;-69
2022/06/21 07:24:24;;;;;;;8.60;3.13;;;16.40;99.90;;;;;;5071029;28;20412;-68
2022/06/21 07:27:07;;;;;;;9.48;3.00;;;16.50;99.90;;;;;;5054267;28;20053;-68
2022/06/21 07:29:42;;;;;;;15.43;3.03;;;16.70;99.90;;;;;;5047893;28;20052;-68
2022/06/21 07:32:15;;;;;;;10.45;3.30;;;16.70;99.90;;;;;;5049597;28;20084;-68
2022/06/21 07:34:48;;;;;;;5.55;2.88;;;17.00;99.90;;;;;;5054692;28;20051;-68
2022/06/21 07:37:41;;;;;;;9.88;3.25;;;17.10;99.90;;;;;;5045279;28;20111;-67
2022/06/21 07:40:17;;;;;;;8.05;2.55;;;17.20;99.90;;;;;;5033228;28;20132;-68
2022/06/21 07:42:48;;;;;;;9.57;3.20;;;17.10;99.90;;;;;;5035283;28;20049;-68
2022/06/21 07:45:26;;;;;;;6.75;2.45;;;17.20;99.90;;;;;;5058042;28;20124;-68
2022/06/21 07:48:10;;;;;;;11.15;3.08;;;17.30;99.90;;;;;;5054407;28;20055;-68
2022/06/21 07:50:43;;;;;;;7.63;3.05;;;17.40;99.90;;;;;;5055611;28;20053;-68
2022/06/21 07:53:19;;;;;;;6.43;2.70;;;17.40;99.90;;;;;;5055129;28;20049;-68
2022/06/21 07:55:58;;;;;;;5.53;2.65;;;17.50;99.90;;;;;;5038479;28;20129;-68
2022/06/21 07:58:32;;;;;;;;;;;17.50;99.90;;;;;;5062134;28;20065;-67
2022/06/21 08:06:42;;;;;;;10.18;3.15;;;17.90;99.90;;;;;;5053675;28;20487;-68
2022/06/21 08:09:20;;;;;;;7.85;3.30;;;18.00;99.90;;;;;;5048998;28;20076;-69
2022/06/21 08:11:48;;;;;;;6.47;2.88;;;18.20;99.90;;;;;;5034742;28;20049;-68
2022/06/21 08:14:15;;;;;;;11.50;3.00;;;18.30;99.90;;;;;;5050084;28;20052;-68
2022/06/21 08:16:59;;;;;;;8.00;3.22;;;18.40;99.90;;;;;;5047969;28;20053;-68
2022/06/21 08:19:41;;;;;;;8.82;3.17;;;18.60;99.90;;;;;;5054638;28;20229;-67
2022/06/21 08:22:12;;;;;;;9.00;3.20;;;18.70;99.90;;;;;;5045874;28;20068;-68
2022/06/21 08:25:02;;;;;;;7.38;2.72;;;18.80;99.90;;;;;;5049903;28;20052;-68
2022/06/21 08:27:39;;;;;;;6.97;2.40;;;19.00;99.90;;;;;;5049753;28;20492;-68
2022/06/21 08:30:11;;;;;;;16.00;2.20;;;19.10;99.90;;;;;;5049773;28;20087;-68
2022/06/21 08:32:54;;;;;;;6.30;2.30;;;19.20;99.90;;;;;;5054731;28;20049;-68
2022/06/21 08:35:51;;;;;;;5.75;2.47;;;19.20;99.90;;;;;;5053229;28;20554;-67
2022/06/21 08:38:31;;;;;;;6.82;2.50;;;19.20;99.90;;;;;;5029922;28;20053;-68
2022/06/21 08:41:57;;;;;;;9.90;3.03;;;19.40;99.90;;;;;;5034674;28;20042;-68
2022/06/21 08:44:40;;;;;;;6.47;2.30;;;19.60;99.90;;;;;;5034150;28;20042;-68
2022/06/21 08:47:09;;;;;;;8.25;2.80;;;19.70;99.90;;;;;;5034246;28;20041;-68
2022/06/21 08:49:52;;;;;;;8.43;2.50;;;19.90;99.90;;;;;;5034544;28;20045;-68
2022/06/21 08:52:42;;;;;;;7.18;2.40;;;19.80;99.90;;;;;;5034404;28;20055;-69
2022/06/21 08:55:19;;;;;;;10.45;2.75;;;19.90;99.60;;;;;;5049377;28;20071;-68
2022/06/21 08:57:50;;;;;;;9.50;2.42;;;19.80;99.90;;;;;;5045167;28;20076;-68
2022/06/21 09:00:29;;;;;;;10.23;2.70;;;19.70;99.90;;;;;;5053685;28;20053;-68
2022/06/21 09:03:36;;;;;;;6.60;2.72;;;19.80;99.90;;;;;;5052760;28;20087;-68
2022/06/21 09:06:14;;;;;;;5.18;2.33;;;19.90;99.90;;;;;;5048828;28;20085;-68
2022/06/21 09:08:52;;;;;;;9.68;3.35;;;19.90;99.60;;;;;;5034194;28;20133;-68
2022/06/21 09:11:17;;;;;;;5.25;2.03;;;19.90;99.90;;;;;;5046411;28;20411;-68
2022/06/21 09:14:01;;;;;;;6.07;2.38;;;20.00;99.10;;;;;;5052298;28;20044;-68
2022/06/21 09:16:53;;;;;;;5.68;2.80;;;20.00;97.60;;;;;;5039358;28;20463;-68
2022/06/21 09:19:35;;;;;;;5.95;3.10;;;19.90;98.60;;;;;;5053904;28;20040;-68
2022/06/21 09:22:19;;;;;;;5.18;2.70;;;20.00;98.60;;;;;;5034268;28;20072;-68
2022/06/21 09:24:47;;;;;;;7.53;2.75;;;20.10;98.40;;;;;;5033397;28;20053;-68
2022/06/21 09:27:53;;;;;;;7.10;2.42;;;20.30;99.20;;;;;;5048742;28;20041;-68
2022/06/21 09:30:31;;;;;;;4.68;2.38;;;20.40;97.90;;;;;;5027340;28;20045;-69
2022/06/21 09:33:45;;;;;;;7.22;2.67;;;20.60;98.20;;;;;;5048849;28;20045;-68
2022/06/21 09:36:27;;;;;;;6.70;2.72;;;20.70;97.30;;;;;;5031881;28;20044;-68
2022/06/21 09:39:21;;;;;;;7.95;2.45;;;20.70;97.40;;;;;;5048099;28;20044;-69
2022/06/21 09:42:06;;;;;;;6.78;2.97;;;20.70;97.40;;;;;;5034925;28;20045;-68
2022/06/21 09:44:38;;;;;;;7.00;2.97;;;20.90;98.10;;;;;;5045732;28;20037;-68
2022/06/21 09:47:28;;;;;;;10.60;2.90;;;21.10;97.60;;;;;;5038307;28;20048;-68
2022/06/21 09:50:15;;;;;;;6.03;2.08;;;21.20;97.10;;;;;;5068625;28;20072;-69
2022/06/21 09:52:59;;;;;;;5.18;1.90;;;21.30;96.30;;;;;;5053813;28;20503;-68
2022/06/21 09:55:35;;;;;;;4.28;2.05;;;21.50;96.10;;;;;;5035161;28;20499;-67
2022/06/21 09:58:19;;;;;;;4.82;2.30;;;21.70;96.00;;;;;;5045900;28;20044;-68
2022/06/21 10:01:20;;;;;;;9.48;2.55;;;21.80;95.10;;;;;;5052943;28;20045;-68
2022/06/21 10:03:57;;;;;;;6.57;2.20;;;21.90;94.80;;;;;;5048773;28;20057;-69
2022/06/21 10:06:39;;;;;;;6.30;2.20;;;22.00;93.50;;;;;;5051595;28;20074;-68
2022/06/21 10:09:46;;;;;;;4.22;1.80;;;21.90;92.10;;;;;;5040044;28;20335;-68
2022/06/21 10:12:49;;;;;;;4.85;1.90;;;21.70;92.80;;;;;;5032681;28;20091;-69
2022/06/21 10:15:43;;;;;;;3.97;1.83;;;21.70;92.70;;;;;;5038077;28;20045;-68
2022/06/21 10:18:14;;;;;;;4.20;1.77;;;21.80;93.40;;;;;;5051205;28;20047;-68
2022/06/21 10:20:55;;;;;;;8.70;2.22;;;21.90;93.90;;;;;;5034478;28;20107;-68
2022/06/21 10:24:09;;;;;;;7.13;1.85;;;22.30;92.90;;;;;;5050425;28;20048;-68
2022/06/21 10:27:03;;;;;;;6.65;2.13;;;22.40;91.30;;;;;;5043225;28;20049;-68
2022/06/21 10:29:32;;;;;;;6.40;2.53;;;22.30;90.70;;;;;;5053565;28;20045;-70
2022/06/21 10:32:23;;;;;;;6.13;2.15;;;22.20;90.10;;;;;;5051087;28;20092;-69
2022/06/21 10:35:32;;;;;;;7.15;2.20;;;21.90;90.80;;;;;;5032504;28;20077;-69
2022/06/21 10:38:22;;;;;;;5.90;2.35;;;21.80;92.20;;;;;;5032075;28;20045;-70
2022/06/21 10:41:06;;;;;;;5.40;2.00;;;22.10;92.40;;;;;;5032136;28;20050;-68
2022/06/21 10:43:40;;;;;;;6.95;2.17;;;22.50;92.70;;;;;;5032479;28;20131;-68
2022/06/21 10:46:14;;;;;;;7.47;2.20;;;22.90;91.50;;;;;;5032140;28;20420;-69
2022/06/21 10:49:04;;;;;;;5.45;2.20;;;23.00;90.70;;;;;;5042498;28;20041;-69
2022/06/21 10:51:56;;;;;;;6.20;2.20;;;22.90;90.70;;;;;;5051501;28;20045;-68
2022/06/21 10:54:40;;;;;;;7.97;1.90;;;22.50;89.00;;;;;;5050818;28;20102;-70
2022/06/21 10:57:38;;;;;;;7.38;2.00;;;22.00;91.00;;;;;;5056521;28;20045;-69
2022/06/21 11:03:45;;;;;;;5.03;1.60;;;21.60;91.00;;;;;;5037100;28;20055;-69
2022/06/21 11:06:24;;;;;;;5.47;1.98;;;21.40;91.20;;;;;;5042948;28;20049;-69
2022/06/21 11:09:03;;;;;;;5.50;1.77;;;21.40;92.10;;;;;;5042489;28;20487;-69
2022/06/21 11:11:42;;;;;;;2.83;1.70;;;21.70;91.80;;;;;;5050057;28;20406;-69
2022/06/21 11:14:37;;;;;;;5.28;2.03;;;22.30;91.70;;;;;;5033240;28;20171;-69
2022/06/21 11:17:40;;;;;;;4.97;1.88;;;22.80;89.90;;;;;;5051981;28;20076;-69
2022/06/21 11:20:15;;;;;;;8.82;2.10;;;23.10;88.90;;;;;;5048805;28;20483;-67
2022/06/21 11:22:47;;;;;;;4.30;1.92;;;23.40;88.10;;;;;;5043406;28;20124;-67
2022/06/21 11:25:30;;;;;;;4.43;1.55;;;23.70;88.50;;;;;;5047955;28;20103;-69
2022/06/21 11:28:14;;;;;;;5.25;1.55;;;23.90;84.80;;;;;;5041454;28;20068;-67
2022/06/21 11:30:47;;;;;;;3.53;1.73;;;24.10;86.30;;;;;;5051050;28;20044;-67
2022/06/21 11:33:32;;;;;;;5.43;1.92;;;24.40;86.30;;;;;;5047556;28;20079;-66
2022/06/21 11:36:21;;;;;;;6.72;2.00;;;24.60;84.40;;;;;;5051263;28;20120;-67
2022/06/21 11:39:11;;;;;;;5.07;2.03;;;24.50;82.00;;;;;;5043999;28;20116;-67
2022/06/21 11:42:08;;;;;;;4.60;1.67;;;24.40;80.50;;;;;;5041758;28;20060;-67
2022/06/21 11:45:13;;;;;;;5.15;1.67;;;24.20;81.70;;;;;;5050287;28;20041;-67
2022/06/21 11:48:10;;;;;;;4.75;1.67;;;24.30;81.20;;;;;;5051335;28;20137;-68
2022/06/21 11:50:58;;;;;;;5.10;1.50;;;24.60;81.40;;;;;;5053344;28;20064;-67
2022/06/21 11:53:54;;;;;;;4.07;1.80;;;24.70;80.20;;;;;;5053993;28;20052;-69
2022/06/21 11:56:49;;;;;;;6.38;1.60;;;24.80;78.00;;;;;;5061668;28;20049;-68
2022/06/21 11:59:27;;;;;;;4.53;1.70;;;24.70;77.60;;;;;;5053773;28;20396;-67
2022/06/21 12:02:09;;;;;;;5.00;1.50;;;24.60;73.60;;;;;;5049496;28;20063;-68
2022/06/21 12:04:50;;;;;;;5.00;1.48;;;24.40;76.30;;;;;;5043286;28;20053;-67
2022/06/21 12:07:24;;;;;;;5.93;1.70;;;24.30;78.60;;;;;;5048774;28;20126;-67
2022/06/21 12:10:15;;;;;;;7.07;1.90;;;24.40;78.90;;;;;;5055300;28;20061;-67
2022/06/21 12:12:53;;;;;;;6.10;2.00;;;24.50;77.80;;;;;;5053675;28;20069;-68
2022/06/21 12:15:18;;;;;;;5.23;1.67;;;24.60;74.60;;;;;;5042345;28;20049;-68
2022/06/21 12:17:52;;;;;;;3.88;1.50;;;24.30;74.50;;;;;;5056703;28;20291;-68
2022/06/21 12:20:43;;;;;;;2.85;1.40;;;24.10;75.30;;;;;;5055571;28;20505;-67
2022/06/21 12:23:20;;;;;;;4.82;1.80;;;24.00;75.50;;;;;;5046021;28;20105;-68
2022/06/21 12:25:47;;;;;;;4.57;1.70;;;24.00;76.30;;;;;;5047484;28;20493;-67
2022/06/21 12:28:15;;;;;;;3.97;1.60;;;24.10;73.90;;;;;;5049449;28;20060;-68
2022/06/21 12:30:41;;;;;;;4.70;1.67;;;24.00;74.70;;;;;;5052747;28;20505;-68
2022/06/21 12:33:10;;;;;;;4.32;1.65;;;23.90;73.70;;;;;;5041441;28;20032;-68
2022/06/21 12:35:50;;;;;;;5.35;1.80;;;24.00;76.10;;;;;;5038060;28;20041;-67
2022/06/21 12:38:21;;;;;;;3.90;1.52;;;24.20;74.10;;;;;;5037334;28;20045;-68
2022/06/21 12:40:54;;;;;;;4.00;1.45;;;24.40;75.20;;;;;;5041466;28;20111;-68
2022/06/21 12:43:41;;;;;;;3.58;1.52;;;24.50;73.40;;;;;;5016491;28;20098;-69
2022/06/21 12:46:39;;;;;;;4.88;1.75;;;24.30;73.70;;;;;;5032732;28;20049;-68
2022/06/21 12:49:13;;;;;;;5.90;1.90;;;24.60;76.30;;;;;;5038177;28;20135;-68
2022/06/21 12:51:58;;;;;;;49.85;3.45;;;24.80;73.90;;;;;;5033180;28;20045;-69
2022/06/21 12:54:55;;;;;;;4.70;1.75;;;25.00;74.60;;;;;;5016544;28;20140;-68
2022/06/21 12:57:30;;;;;;;5.85;1.73;;;25.10;73.40;;;;;;5046917;28;20049;-68
2022/06/21 13:00:22;;;;;;;3.72;1.67;;;25.10;71.80;;;;;;5032978;28;20053;-67
2022/06/21 13:02:47;;;;;;;4.53;2.05;;;25.20;72.70;;;;;;5032827;28;20057;-67
2022/06/21 13:05:38;;;;;;;5.15;1.70;;;25.30;71.30;;;;;;5063474;28;20067;-66
2022/06/21 13:08:31;;;;;;;3.83;1.60;;;25.30;69.40;;;;;;5048030;28;20064;-67
2022/06/21 13:11:30;;;;;;;6.20;1.98;;;25.20;69.00;;;;;;5047101;28;20074;-66
2022/06/21 13:13:59;;;;;;;;;;;25.00;70.80;;;;;;5046782;28;20491;-67
2022/06/21 13:16:42;;;;;;;5.28;1.70;;;24.80;69.80;;;;;;5045479;28;19978;-68
2022/06/21 13:19:38;;;;;;;4.63;1.88;;;24.80;72.00;;;;;;5051817;28;20053;-67
2022/06/21 13:22:23;;;;;;;5.40;1.90;;;25.00;70.40;;;;;;5048237;28;20037;-68
2022/06/21 13:25:02;;;;;;;7.55;2.00;;;25.00;69.10;;;;;;5050853;28;20045;-69
2022/06/21 13:27:36;;;;;;;4.65;2.03;;;24.80;71.90;;;;;;5045334;28;20096;-67
2022/06/21 13:30:32;;;;;;;5.03;1.75;;;25.00;71.90;;;;;;5042407;28;20099;-68
2022/06/21 13:33:20;;;;;;;4.30;1.65;;;25.20;72.30;;;;;;5052859;28;20079;-68
2022/06/21 13:36:06;;;;;;;5.72;1.80;;;25.60;70.70;;;;;;5051423;28;20390;-67
2022/06/21 13:38:54;;;;;;;5.22;1.67;;;25.50;67.60;;;;;;5053572;28;20122;-68
2022/06/21 13:44:29;;;;;;;4.63;1.73;;;25.20;70.70;;;;;;5068688;28;20159;-68
2022/06/21 13:47:16;;;;;;;6.32;2.17;;;25.10;70.20;;;;;;5047756;28;20049;-67
2022/06/21 13:49:49;;;;;;;4.15;1.52;;;24.80;67.70;;;;;;5033187;28;20052;-68
2022/06/21 13:52:19;;;;;;;4.05;1.80;;;24.50;71.10;;;;;;5039591;28;20487;-68
2022/06/21 13:54:51;;;;;;;6.40;1.58;;;24.50;71.70;;;;;;5043588;28;20053;-68